sensor_id;sensor_type;location;lat;lon;timestamp;pressure;altitude;pressure_sealevel;temperature;humidity
60817;BME280;51921;51.518;-3.188;2023-07-31T00:00:59;100368.02;;;13.96;100.00
60817;BME280;51921;51.518;-3.188;2023-07-31T00:03:25;100367.37;;;14.14;100.00
60817;BME280;51921;51.518;-3.188;2023-07-31T00:05:50;100354.04;;;14.11;100.00
60817;BME280;51921;51.518;-3.188;2023-07-31T00:08:16;100356.21;;;13.70;100.00
60817;BME280;51921;51.518;-3.188;2023-07-31T00:10:41;100344.40;;;13.03;100.00
60817;BME280;51921;51.518;-3.188;2023-07-31T00:13:06;100348.59;;;13.85;100.00
60817;BME280;51921;51.518;-3.188;2023-07-31T00:15:31;100345.01;;;14.04;100.00
60817;BME280;51921;51.518;-3.188;2023-07-31T00:17:57;100346.41;;;13.64;100.00
60817;BME280;51921;51.518;-3.188;2023-07-31T00:20:22;100337.50;;;13.45;100.00
60817;BME280;51921;51.518;-3.188;2023-07-31T00:22:47;100339.03;;;13.36;100.00
60817;BME280;51921;51.518;-3.188;2023-07-31T00:25:13;100339.00;;;12.98;100.00
60817;BME280;51921;51.518;-3.188;2023-07-31T00:27:38;100340.40;;;13.55;100.00
60817;BME280;51921;51.518;-3.188;2023-07-31T00:30:04;100347.77;;;13.59;100.00
60817;BME280;51921;51.518;-3.188;2023-07-31T00:32:29;100341.12;;;13.71;100.00
60817;BME280;51921;51.518;-3.188;2023-07-31T00:34:54;100339.21;;;13.19;100.00
60817;BME280;51921;51.518;-3.188;2023-07-31T00:37:20;100340.38;;;13.46;100.00
60817;BME280;51921;51.518;-3.188;2023-07-31T00:39:45;100334.96;;;13.60;100.00
60817;BME280;51921;51.518;-3.188;2023-07-31T00:42:10;100329.06;;;13.58;100.00
60817;BME280;51921;51.518;-3.188;2023-07-31T00:44:36;100322.21;;;13.16;100.00
60817;BME280;51921;51.518;-3.188;2023-07-31T00:47:01;100320.94;;;13.55;100.00
60817;BME280;51921;51.518;-3.188;2023-07-31T00:49:27;100318.14;;;13.37;100.00
60817;BME280;51921;51.518;-3.188;2023-07-31T00:51:53;100318.51;;;13.58;100.00
60817;BME280;51921;51.518;-3.188;2023-07-31T00:54:17;100319.41;;;13.24;100.00
60817;BME280;51921;51.518;-3.188;2023-07-31T00:56:45;100320.19;;;13.23;100.00
60817;BME280;51921;51.518;-3.188;2023-07-31T00:59:08;100315.40;;;13.22;100.00
60817;BME280;51921;51.518;-3.188;2023-07-31T01:01:33;100312.26;;;13.39;100.00
60817;BME280;51921;51.518;-3.188;2023-07-31T01:03:59;100313.92;;;13.38;100.00
60817;BME280;51921;51.518;-3.188;2023-07-31T01:06:33;100305.97;;;13.77;100.00
60817;BME280;51921;51.518;-3.188;2023-07-31T01:08:57;100303.91;;;13.46;100.00
60817;BME280;51921;51.518;-3.188;2023-07-31T01:11:19;100306.98;;;13.45;100.00
60817;BME280;51921;51.518;-3.188;2023-07-31T01:13:41;100308.87;;;13.31;100.00
60817;BME280;51921;51.518;-3.188;2023-07-31T01:16:06;100306.45;;;13.43;100.00
60817;BME280;51921;51.518;-3.188;2023-07-31T01:18:31;100307.82;;;13.26;100.00
60817;BME280;51921;51.518;-3.188;2023-07-31T01:21:03;100297.49;;;13.33;100.00
60817;BME280;51921;51.518;-3.188;2023-07-31T01:23:34;100297.75;;;13.42;100.00
60817;BME280;51921;51.518;-3.188;2023-07-31T01:25:54;100291.06;;;14.03;100.00
60817;BME280;51921;51.518;-3.188;2023-07-31T01:28:16;100281.95;;;13.33;100.00
60817;BME280;51921;51.518;-3.188;2023-07-31T01:30:43;100284.94;;;13.65;100.00
60817;BME280;51921;51.518;-3.188;2023-07-31T01:33:04;100288.27;;;13.94;100.00
60817;BME280;51921;51.518;-3.188;2023-07-31T01:35:29;100291.58;;;13.09;100.00
60817;BME280;51921;51.518;-3.188;2023-07-31T01:37:54;100280.28;;;13.16;100.00
60817;BME280;51921;51.518;-3.188;2023-07-31T01:40:19;100280.61;;;13.11;100.00
60817;BME280;51921;51.518;-3.188;2023-07-31T01:42:45;100289.53;;;12.74;100.00
60817;BME280;51921;51.518;-3.188;2023-07-31T01:45:11;100280.57;;;12.84;100.00
60817;BME280;51921;51.518;-3.188;2023-07-31T01:47:36;100291.23;;;13.07;100.00
60817;BME280;51921;51.518;-3.188;2023-07-31T01:50:01;100285.48;;;13.46;100.00
60817;BME280;51921;51.518;-3.188;2023-07-31T01:52:26;100294.67;;;12.95;100.00
60817;BME280;51921;51.518;-3.188;2023-07-31T01:54:52;100283.99;;;12.99;100.00
60817;BME280;51921;51.518;-3.188;2023-07-31T01:57:17;100279.71;;;12.56;100.00
60817;BME280;51921;51.518;-3.188;2023-07-31T01:59:42;100278.11;;;12.51;100.00
60817;BME280;51921;51.518;-3.188;2023-07-31T02:02:07;100283.20;;;12.78;100.00
60817;BME280;51921;51.518;-3.188;2023-07-31T02:04:32;100278.24;;;13.32;100.00
60817;BME280;51921;51.518;-3.188;2023-07-31T02:06:58;100285.74;;;12.44;100.00
60817;BME280;51921;51.518;-3.188;2023-07-31T02:09:23;100273.06;;;12.81;100.00
60817;BME280;51921;51.518;-3.188;2023-07-31T02:11:48;100263.02;;;12.91;100.00
60817;BME280;51921;51.518;-3.188;2023-07-31T02:14:14;100263.82;;;12.27;100.00
60817;BME280;51921;51.518;-3.188;2023-07-31T02:16:39;100266.75;;;12.38;100.00
60817;BME280;51921;51.518;-3.188;2023-07-31T02:19:10;100258.87;;;12.59;100.00
60817;BME280;51921;51.518;-3.188;2023-07-31T02:21:30;100262.95;;;12.36;100.00
60817;BME280;51921;51.518;-3.188;2023-07-31T02:23:55;100264.37;;;11.99;100.00
60817;BME280;51921;51.518;-3.188;2023-07-31T02:26:21;100270.70;;;13.16;100.00
60817;BME280;51921;51.518;-3.188;2023-07-31T02:28:47;100267.24;;;12.40;100.00
60817;BME280;51921;51.518;-3.188;2023-07-31T02:31:11;100272.52;;;12.38;100.00
60817;BME280;51921;51.518;-3.188;2023-07-31T02:33:36;100275.35;;;12.26;100.00
60817;BME280;51921;51.518;-3.188;2023-07-31T02:36:02;100260.34;;;11.66;100.00
60817;BME280;51921;51.518;-3.188;2023-07-31T02:38:27;100264.76;;;12.54;100.00
60817;BME280;51921;51.518;-3.188;2023-07-31T02:40:53;100266.19;;;11.91;100.00
60817;BME280;51921;51.518;-3.188;2023-07-31T02:43:18;100254.18;;;12.39;100.00
60817;BME280;51921;51.518;-3.188;2023-07-31T02:45:43;100247.05;;;12.29;100.00
60817;BME280;51921;51.518;-3.188;2023-07-31T02:48:08;100242.55;;;12.06;100.00
60817;BME280;51921;51.518;-3.188;2023-07-31T02:50:33;100242.41;;;12.40;100.00
60817;BME280;51921;51.518;-3.188;2023-07-31T02:52:59;100236.10;;;12.58;100.00
60817;BME280;51921;51.518;-3.188;2023-07-31T02:55:24;100238.60;;;12.55;100.00
60817;BME280;51921;51.518;-3.188;2023-07-31T02:57:49;100230.08;;;12.61;100.00
60817;BME280;51921;51.518;-3.188;2023-07-31T03:00:14;100228.69;;;12.08;100.00
60817;BME280;51921;51.518;-3.188;2023-07-31T03:02:40;100221.04;;;12.36;100.00
60817;BME280;51921;51.518;-3.188;2023-07-31T03:05:05;100223.86;;;12.34;100.00
60817;BME280;51921;51.518;-3.188;2023-07-31T03:07:30;100226.74;;;12.27;100.00
60817;BME280;51921;51.518;-3.188;2023-07-31T03:09:56;100228.98;;;12.53;100.00
60817;BME280;51921;51.518;-3.188;2023-07-31T03:12:21;100218.40;;;12.20;100.00
60817;BME280;51921;51.518;-3.188;2023-07-31T03:14:47;100223.79;;;12.34;100.00
60817;BME280;51921;51.518;-3.188;2023-07-31T03:17:12;100208.89;;;12.16;100.00
60817;BME280;51921;51.518;-3.188;2023-07-31T03:19:37;100209.21;;;12.35;100.00
60817;BME280;51921;51.518;-3.188;2023-07-31T03:22:04;100207.33;;;12.58;100.00
60817;BME280;51921;51.518;-3.188;2023-07-31T03:24:28;100211.99;;;12.48;100.00
60817;BME280;51921;51.518;-3.188;2023-07-31T03:26:53;100217.49;;;11.75;100.00
60817;BME280;51921;51.518;-3.188;2023-07-31T03:29:19;100221.41;;;12.68;100.00
60817;BME280;51921;51.518;-3.188;2023-07-31T03:31:44;100219.17;;;12.54;100.00
60817;BME280;51921;51.518;-3.188;2023-07-31T03:34:10;100215.39;;;12.76;100.00
60817;BME280;51921;51.518;-3.188;2023-07-31T03:36:35;100218.59;;;12.51;100.00
60817;BME280;51921;51.518;-3.188;2023-07-31T03:39:00;100227.88;;;12.50;100.00
60817;BME280;51921;51.518;-3.188;2023-07-31T03:41:26;100222.55;;;13.06;100.00
60817;BME280;51921;51.518;-3.188;2023-07-31T03:43:51;100229.38;;;13.52;100.00
60817;BME280;51921;51.518;-3.188;2023-07-31T03:46:16;100220.15;;;12.49;100.00
60817;BME280;51921;51.518;-3.188;2023-07-31T03:48:42;100219.82;;;12.81;100.00
60817;BME280;51921;51.518;-3.188;2023-07-31T03:51:07;100213.73;;;12.90;100.00
60817;BME280;51921;51.518;-3.188;2023-07-31T03:53:33;100208.78;;;13.06;100.00
60817;BME280;51921;51.518;-3.188;2023-07-31T03:55:58;100212.50;;;12.76;100.00
60817;BME280;51921;51.518;-3.188;2023-07-31T03:58:23;100226.97;;;12.50;100.00
60817;BME280;51921;51.518;-3.188;2023-07-31T04:00:49;100226.05;;;13.13;100.00
60817;BME280;51921;51.518;-3.188;2023-07-31T04:03:14;100226.79;;;13.01;100.00
60817;BME280;51921;51.518;-3.188;2023-07-31T04:05:40;100216.50;;;13.22;100.00
60817;BME280;51921;51.518;-3.188;2023-07-31T04:08:05;100225.83;;;12.22;100.00
60817;BME280;51921;51.518;-3.188;2023-07-31T04:10:30;100230.98;;;12.10;100.00
60817;BME280;51921;51.518;-3.188;2023-07-31T04:12:56;100228.64;;;12.30;100.00
60817;BME280;51921;51.518;-3.188;2023-07-31T04:15:21;100227.74;;;12.73;100.00
60817;BME280;51921;51.518;-3.188;2023-07-31T04:17:46;100228.27;;;12.68;100.00
60817;BME280;51921;51.518;-3.188;2023-07-31T04:20:12;100229.71;;;12.74;100.00
60817;BME280;51921;51.518;-3.188;2023-07-31T04:22:37;100216.38;;;12.76;100.00
60817;BME280;51921;51.518;-3.188;2023-07-31T04:25:02;100213.63;;;13.88;100.00
60817;BME280;51921;51.518;-3.188;2023-07-31T04:27:27;100215.20;;;13.29;100.00
60817;BME280;51921;51.518;-3.188;2023-07-31T04:29:52;100218.70;;;13.67;100.00
60817;BME280;51921;51.518;-3.188;2023-07-31T04:32:18;100222.93;;;13.42;100.00
60817;BME280;51921;51.518;-3.188;2023-07-31T04:34:44;100211.85;;;13.65;100.00
60817;BME280;51921;51.518;-3.188;2023-07-31T04:37:09;100219.73;;;13.15;100.00
60817;BME280;51921;51.518;-3.188;2023-07-31T04:39:34;100221.72;;;13.08;100.00
60817;BME280;51921;51.518;-3.188;2023-07-31T04:41:59;100214.60;;;12.96;100.00
60817;BME280;51921;51.518;-3.188;2023-07-31T04:44:25;100220.60;;;12.90;100.00
60817;BME280;51921;51.518;-3.188;2023-07-31T04:46:51;100215.15;;;13.46;100.00
60817;BME280;51921;51.518;-3.188;2023-07-31T04:49:16;100219.12;;;12.67;100.00
60817;BME280;51921;51.518;-3.188;2023-07-31T04:51:41;100218.97;;;12.34;100.00
60817;BME280;51921;51.518;-3.188;2023-07-31T04:54:07;100208.55;;;13.56;100.00
60817;BME280;51921;51.518;-3.188;2023-07-31T04:56:32;100210.24;;;13.05;100.00
60817;BME280;51921;51.518;-3.188;2023-07-31T04:58:58;100212.58;;;13.15;100.00
60817;BME280;51921;51.518;-3.188;2023-07-31T05:01:23;100208.31;;;13.12;100.00
60817;BME280;51921;51.518;-3.188;2023-07-31T05:03:49;100211.52;;;13.06;100.00
60817;BME280;51921;51.518;-3.188;2023-07-31T05:06:14;100206.93;;;13.56;100.00
60817;BME280;51921;51.518;-3.188;2023-07-31T05:08:39;100209.69;;;13.47;100.00
60817;BME280;51921;51.518;-3.188;2023-07-31T05:11:05;100209.02;;;13.06;100.00
60817;BME280;51921;51.518;-3.188;2023-07-31T05:13:30;100203.15;;;12.46;100.00
60817;BME280;51921;51.518;-3.188;2023-07-31T05:15:56;100210.61;;;12.75;100.00
60817;BME280;51921;51.518;-3.188;2023-07-31T05:18:21;100221.68;;;12.88;100.00
60817;BME280;51921;51.518;-3.188;2023-07-31T05:20:46;100216.45;;;13.05;100.00
60817;BME280;51921;51.518;-3.188;2023-07-31T05:23:12;100215.98;;;13.48;100.00
60817;BME280;51921;51.518;-3.188;2023-07-31T05:25:37;100214.15;;;13.44;100.00
60817;BME280;51921;51.518;-3.188;2023-07-31T05:28:03;100209.84;;;13.69;100.00
60817;BME280;51921;51.518;-3.188;2023-07-31T05:30:30;100207.07;;;13.73;100.00
60817;BME280;51921;51.518;-3.188;2023-07-31T05:32:53;100208.70;;;13.22;100.00
60817;BME280;51921;51.518;-3.188;2023-07-31T05:35:19;100205.32;;;12.94;100.00
60817;BME280;51921;51.518;-3.188;2023-07-31T05:37:44;100201.07;;;13.48;100.00
60817;BME280;51921;51.518;-3.188;2023-07-31T05:40:10;100190.56;;;13.37;100.00
60817;BME280;51921;51.518;-3.188;2023-07-31T05:42:35;100188.69;;;13.96;100.00
60817;BME280;51921;51.518;-3.188;2023-07-31T05:45:00;100195.43;;;14.66;100.00
60817;BME280;51921;51.518;-3.188;2023-07-31T05:47:25;100194.29;;;13.62;100.00
60817;BME280;51921;51.518;-3.188;2023-07-31T05:49:51;100185.83;;;14.07;100.00
60817;BME280;51921;51.518;-3.188;2023-07-31T05:52:16;100180.90;;;14.13;100.00
60817;BME280;51921;51.518;-3.188;2023-07-31T05:54:42;100179.52;;;14.02;100.00
60817;BME280;51921;51.518;-3.188;2023-07-31T05:57:07;100184.92;;;14.40;100.00
60817;BME280;51921;51.518;-3.188;2023-07-31T05:59:32;100191.80;;;14.05;100.00
60817;BME280;51921;51.518;-3.188;2023-07-31T06:01:58;100192.42;;;14.43;100.00
60817;BME280;51921;51.518;-3.188;2023-07-31T06:04:23;100199.61;;;14.77;100.00
60817;BME280;51921;51.518;-3.188;2023-07-31T06:06:48;100191.98;;;15.42;100.00
60817;BME280;51921;51.518;-3.188;2023-07-31T06:09:14;100188.49;;;14.61;100.00
60817;BME280;51921;51.518;-3.188;2023-07-31T06:11:39;100190.59;;;13.00;100.00
60817;BME280;51921;51.518;-3.188;2023-07-31T06:14:04;100181.58;;;13.90;100.00
60817;BME280;51921;51.518;-3.188;2023-07-31T06:16:29;100176.37;;;13.73;100.00
60817;BME280;51921;51.518;-3.188;2023-07-31T06:18:55;100177.86;;;14.54;100.00
60817;BME280;51921;51.518;-3.188;2023-07-31T06:21:20;100168.58;;;13.85;100.00
60817;BME280;51921;51.518;-3.188;2023-07-31T06:23:47;100174.37;;;14.86;100.00
60817;BME280;51921;51.518;-3.188;2023-07-31T06:26:11;100172.21;;;14.78;100.00
60817;BME280;51921;51.518;-3.188;2023-07-31T06:28:37;100180.56;;;14.17;100.00
60817;BME280;51921;51.518;-3.188;2023-07-31T06:31:02;100189.77;;;14.51;100.00
60817;BME280;51921;51.518;-3.188;2023-07-31T06:33:28;100188.82;;;14.29;100.00
60817;BME280;51921;51.518;-3.188;2023-07-31T06:35:54;100191.58;;;13.68;100.00
60817;BME280;51921;51.518;-3.188;2023-07-31T06:38:21;100194.31;;;13.48;100.00
60817;BME280;51921;51.518;-3.188;2023-07-31T06:40:44;100200.22;;;14.15;100.00
60817;BME280;51921;51.518;-3.188;2023-07-31T06:43:09;100200.54;;;12.80;100.00
60817;BME280;51921;51.518;-3.188;2023-07-31T06:45:35;100189.42;;;13.35;100.00
60817;BME280;51921;51.518;-3.188;2023-07-31T06:48:00;100186.17;;;13.69;100.00
60817;BME280;51921;51.518;-3.188;2023-07-31T06:50:26;100174.63;;;13.32;100.00
60817;BME280;51921;51.518;-3.188;2023-07-31T06:52:50;100172.86;;;14.03;100.00
60817;BME280;51921;51.518;-3.188;2023-07-31T06:55:17;100176.77;;;14.28;100.00
60817;BME280;51921;51.518;-3.188;2023-07-31T06:57:41;100175.04;;;15.87;100.00
60817;BME280;51921;51.518;-3.188;2023-07-31T07:00:08;100181.74;;;15.07;100.00
60817;BME280;51921;51.518;-3.188;2023-07-31T07:02:32;100166.37;;;14.35;100.00
60817;BME280;51921;51.518;-3.188;2023-07-31T07:04:57;100169.48;;;15.09;100.00
60817;BME280;51921;51.518;-3.188;2023-07-31T07:07:22;100171.70;;;14.04;100.00
60817;BME280;51921;51.518;-3.188;2023-07-31T07:09:47;100184.80;;;14.00;100.00
60817;BME280;51921;51.518;-3.188;2023-07-31T07:12:13;100178.24;;;13.32;100.00
60817;BME280;51921;51.518;-3.188;2023-07-31T07:14:38;100200.22;;;12.87;100.00
60817;BME280;51921;51.518;-3.188;2023-07-31T07:17:05;100196.02;;;13.22;100.00
60817;BME280;51921;51.518;-3.188;2023-07-31T07:19:29;100183.36;;;14.29;100.00
60817;BME280;51921;51.518;-3.188;2023-07-31T07:21:54;100176.85;;;13.03;100.00
60817;BME280;51921;51.518;-3.188;2023-07-31T07:24:19;100201.52;;;13.13;100.00
60817;BME280;51921;51.518;-3.188;2023-07-31T07:26:45;100213.06;;;12.98;100.00
60817;BME280;51921;51.518;-3.188;2023-07-31T07:29:10;100206.33;;;13.33;100.00
60817;BME280;51921;51.518;-3.188;2023-07-31T07:31:36;100212.04;;;13.36;100.00
60817;BME280;51921;51.518;-3.188;2023-07-31T07:34:01;100199.55;;;13.75;100.00
60817;BME280;51921;51.518;-3.188;2023-07-31T07:36:27;100186.28;;;13.90;100.00
60817;BME280;51921;51.518;-3.188;2023-07-31T07:38:52;100172.38;;;13.53;100.00
60817;BME280;51921;51.518;-3.188;2023-07-31T07:41:17;100176.97;;;13.44;100.00
60817;BME280;51921;51.518;-3.188;2023-07-31T07:43:42;100185.67;;;13.67;100.00
60817;BME280;51921;51.518;-3.188;2023-07-31T07:46:08;100182.99;;;13.93;100.00
60817;BME280;51921;51.518;-3.188;2023-07-31T07:48:34;100176.46;;;13.78;100.00
60817;BME280;51921;51.518;-3.188;2023-07-31T07:50:59;100169.59;;;13.69;100.00
60817;BME280;51921;51.518;-3.188;2023-07-31T07:53:24;100167.77;;;13.05;100.00
60817;BME280;51921;51.518;-3.188;2023-07-31T07:55:50;100161.10;;;13.61;100.00
60817;BME280;51921;51.518;-3.188;2023-07-31T07:58:15;100167.70;;;13.96;100.00
60817;BME280;51921;51.518;-3.188;2023-07-31T08:00:40;100142.11;;;14.29;100.00
60817;BME280;51921;51.518;-3.188;2023-07-31T08:03:06;100112.30;;;13.22;100.00
60817;BME280;51921;51.518;-3.188;2023-07-31T08:05:31;100110.75;;;14.45;100.00
60817;BME280;51921;51.518;-3.188;2023-07-31T08:07:56;100109.55;;;13.80;100.00
60817;BME280;51921;51.518;-3.188;2023-07-31T08:10:21;100125.45;;;14.05;100.00
60817;BME280;51921;51.518;-3.188;2023-07-31T08:12:47;100127.24;;;14.17;100.00
60817;BME280;51921;51.518;-3.188;2023-07-31T08:15:12;100131.00;;;13.93;100.00
60817;BME280;51921;51.518;-3.188;2023-07-31T08:17:37;100123.70;;;13.99;100.00
60817;BME280;51921;51.518;-3.188;2023-07-31T08:20:03;100127.92;;;14.35;100.00
60817;BME280;51921;51.518;-3.188;2023-07-31T08:22:28;100139.45;;;14.34;100.00
60817;BME280;51921;51.518;-3.188;2023-07-31T08:24:53;100154.06;;;14.70;100.00
60817;BME280;51921;51.518;-3.188;2023-07-31T08:27:18;100152.30;;;14.42;100.00
60817;BME280;51921;51.518;-3.188;2023-07-31T08:29:44;100152.47;;;15.26;100.00
60817;BME280;51921;51.518;-3.188;2023-07-31T08:32:09;100153.90;;;14.71;100.00
60817;BME280;51921;51.518;-3.188;2023-07-31T08:34:34;100140.58;;;15.28;100.00
60817;BME280;51921;51.518;-3.188;2023-07-31T08:37:00;100144.10;;;15.15;100.00
60817;BME280;51921;51.518;-3.188;2023-07-31T08:39:25;100162.37;;;15.02;100.00
60817;BME280;51921;51.518;-3.188;2023-07-31T08:41:50;100167.52;;;14.46;100.00
60817;BME280;51921;51.518;-3.188;2023-07-31T08:44:18;100169.01;;;14.88;100.00
60817;BME280;51921;51.518;-3.188;2023-07-31T08:46:41;100160.13;;;14.88;100.00
60817;BME280;51921;51.518;-3.188;2023-07-31T08:49:07;100162.39;;;15.23;100.00
60817;BME280;51921;51.518;-3.188;2023-07-31T08:51:34;100161.55;;;14.16;100.00
60817;BME280;51921;51.518;-3.188;2023-07-31T08:53:57;100176.06;;;13.99;100.00
60817;BME280;51921;51.518;-3.188;2023-07-31T08:56:23;100149.75;;;14.15;100.00
60817;BME280;51921;51.518;-3.188;2023-07-31T08:58:51;100163.58;;;14.11;100.00
60817;BME280;51921;51.518;-3.188;2023-07-31T09:01:14;100153.95;;;13.97;100.00
60817;BME280;51921;51.518;-3.188;2023-07-31T09:03:39;100172.63;;;14.23;100.00
60817;BME280;51921;51.518;-3.188;2023-07-31T09:06:04;100161.33;;;14.75;100.00
60817;BME280;51921;51.518;-3.188;2023-07-31T09:08:31;100142.46;;;14.18;100.00
60817;BME280;51921;51.518;-3.188;2023-07-31T09:10:59;100133.16;;;14.56;100.00
60817;BME280;51921;51.518;-3.188;2023-07-31T09:13:20;100119.11;;;14.36;100.00
60817;BME280;51921;51.518;-3.188;2023-07-31T09:15:46;100110.62;;;14.10;100.00
60817;BME280;51921;51.518;-3.188;2023-07-31T09:18:12;100101.99;;;14.65;100.00
60817;BME280;51921;51.518;-3.188;2023-07-31T09:20:37;100101.43;;;14.68;100.00
60817;BME280;51921;51.518;-3.188;2023-07-31T09:23:07;100109.22;;;14.02;100.00
60817;BME280;51921;51.518;-3.188;2023-07-31T09:25:27;100126.81;;;13.98;100.00
60817;BME280;51921;51.518;-3.188;2023-07-31T09:27:56;100140.78;;;13.91;100.00
60817;BME280;51921;51.518;-3.188;2023-07-31T09:30:18;100149.34;;;14.72;100.00
60817;BME280;51921;51.518;-3.188;2023-07-31T09:32:44;100155.01;;;14.02;100.00
60817;BME280;51921;51.518;-3.188;2023-07-31T09:35:19;100164.33;;;13.80;100.00
60817;BME280;51921;51.518;-3.188;2023-07-31T09:37:35;100168.43;;;14.07;100.00
60817;BME280;51921;51.518;-3.188;2023-07-31T09:40:00;100156.58;;;13.93;100.00
60817;BME280;51921;51.518;-3.188;2023-07-31T09:42:26;100147.91;;;13.99;100.00
60817;BME280;51921;51.518;-3.188;2023-07-31T09:44:51;100140.65;;;14.08;100.00
60817;BME280;51921;51.518;-3.188;2023-07-31T09:47:22;100161.76;;;14.06;100.00
60817;BME280;51921;51.518;-3.188;2023-07-31T09:49:45;100182.04;;;13.73;100.00
60817;BME280;51921;51.518;-3.188;2023-07-31T09:52:11;100199.56;;;14.03;100.00
60817;BME280;51921;51.518;-3.188;2023-07-31T09:54:32;100192.28;;;13.67;100.00
60817;BME280;51921;51.518;-3.188;2023-07-31T09:56:59;100196.24;;;13.75;100.00
60817;BME280;51921;51.518;-3.188;2023-07-31T09:59:23;100195.39;;;14.44;100.00
60817;BME280;51921;51.518;-3.188;2023-07-31T10:01:49;100199.62;;;13.76;100.00
60817;BME280;51921;51.518;-3.188;2023-07-31T10:04:14;100200.85;;;13.18;100.00
60817;BME280;51921;51.518;-3.188;2023-07-31T10:06:40;100190.64;;;13.58;100.00
60817;BME280;51921;51.518;-3.188;2023-07-31T10:09:06;100184.76;;;13.12;100.00
60817;BME280;51921;51.518;-3.188;2023-07-31T10:11:30;100184.31;;;14.03;100.00
60817;BME280;51921;51.518;-3.188;2023-07-31T10:13:55;100190.83;;;13.98;100.00
60817;BME280;51921;51.518;-3.188;2023-07-31T10:16:21;100197.57;;;13.94;100.00
60817;BME280;51921;51.518;-3.188;2023-07-31T10:18:46;100201.31;;;14.11;100.00
60817;BME280;51921;51.518;-3.188;2023-07-31T10:21:11;100205.58;;;14.03;100.00
60817;BME280;51921;51.518;-3.188;2023-07-31T10:23:37;100196.21;;;13.62;100.00
60817;BME280;51921;51.518;-3.188;2023-07-31T10:26:02;100201.12;;;13.55;100.00
60817;BME280;51921;51.518;-3.188;2023-07-31T10:28:27;100200.91;;;13.63;100.00
60817;BME280;51921;51.518;-3.188;2023-07-31T10:30:52;100189.60;;;12.82;100.00
60817;BME280;51921;51.518;-3.188;2023-07-31T10:33:18;100175.34;;;12.85;100.00
60817;BME280;51921;51.518;-3.188;2023-07-31T10:35:43;100162.58;;;13.13;100.00
60817;BME280;51921;51.518;-3.188;2023-07-31T10:38:12;100164.82;;;12.80;100.00
60817;BME280;51921;51.518;-3.188;2023-07-31T10:40:33;100172.61;;;13.51;100.00
60817;BME280;51921;51.518;-3.188;2023-07-31T10:42:59;100178.45;;;13.23;100.00
60817;BME280;51921;51.518;-3.188;2023-07-31T10:45:26;100164.60;;;13.53;100.00
60817;BME280;51921;51.518;-3.188;2023-07-31T10:47:50;100161.98;;;13.76;100.00
60817;BME280;51921;51.518;-3.188;2023-07-31T10:50:17;100160.79;;;13.47;100.00
60817;BME280;51921;51.518;-3.188;2023-07-31T10:52:40;100146.91;;;14.29;100.00
60817;BME280;51921;51.518;-3.188;2023-07-31T10:55:15;100150.55;;;13.60;100.00
60817;BME280;51921;51.518;-3.188;2023-07-31T10:57:35;100148.46;;;14.14;100.00
60817;BME280;51921;51.518;-3.188;2023-07-31T11:02:25;100109.81;;;13.98;100.00
60817;BME280;51921;51.518;-3.188;2023-07-31T11:07:12;100121.59;;;13.73;100.00
60817;BME280;51921;51.518;-3.188;2023-07-31T11:09:37;100124.86;;;13.44;100.00
60817;BME280;51921;51.518;-3.188;2023-07-31T11:12:03;100108.12;;;14.87;100.00
60817;BME280;51921;51.518;-3.188;2023-07-31T11:14:27;100106.69;;;14.27;100.00
60817;BME280;51921;51.518;-3.188;2023-07-31T11:16:52;100100.09;;;15.13;100.00
60817;BME280;51921;51.518;-3.188;2023-07-31T11:19:22;100099.26;;;14.13;100.00
60817;BME280;51921;51.518;-3.188;2023-07-31T11:21:43;100080.23;;;13.59;100.00
60817;BME280;51921;51.518;-3.188;2023-07-31T11:24:09;100077.65;;;14.03;100.00
60817;BME280;51921;51.518;-3.188;2023-07-31T11:26:34;100061.87;;;14.48;100.00
60817;BME280;51921;51.518;-3.188;2023-07-31T11:28:59;100039.22;;;15.06;100.00
60817;BME280;51921;51.518;-3.188;2023-07-31T11:31:24;100028.88;;;16.01;100.00
60817;BME280;51921;51.518;-3.188;2023-07-31T11:33:49;100041.17;;;14.51;100.00
60817;BME280;51921;51.518;-3.188;2023-07-31T11:36:16;100020.49;;;14.44;100.00
60817;BME280;51921;51.518;-3.188;2023-07-31T11:38:42;100020.32;;;15.57;100.00
60817;BME280;51921;51.518;-3.188;2023-07-31T11:41:06;100083.75;;;14.19;100.00
60817;BME280;51921;51.518;-3.188;2023-07-31T11:43:32;100110.12;;;14.49;100.00
60817;BME280;51921;51.518;-3.188;2023-07-31T11:45:57;100122.35;;;13.88;100.00
60817;BME280;51921;51.518;-3.188;2023-07-31T11:48:23;100147.26;;;14.26;100.00
60817;BME280;51921;51.518;-3.188;2023-07-31T11:50:49;100128.54;;;13.65;100.00
60817;BME280;51921;51.518;-3.188;2023-07-31T11:53:13;100159.28;;;14.65;100.00
60817;BME280;51921;51.518;-3.188;2023-07-31T11:55:37;100146.20;;;14.20;100.00
60817;BME280;51921;51.518;-3.188;2023-07-31T11:58:02;100130.64;;;12.76;100.00
60817;BME280;51921;51.518;-3.188;2023-07-31T12:00:27;100116.34;;;13.65;100.00
60817;BME280;51921;51.518;-3.188;2023-07-31T12:02:53;100082.71;;;13.98;100.00
60817;BME280;51921;51.518;-3.188;2023-07-31T12:05:19;100070.12;;;14.19;100.00
60817;BME280;51921;51.518;-3.188;2023-07-31T12:07:47;100083.81;;;13.59;100.00
60817;BME280;51921;51.518;-3.188;2023-07-31T12:10:08;100102.74;;;14.30;100.00
60817;BME280;51921;51.518;-3.188;2023-07-31T12:12:33;100113.59;;;13.79;100.00
60817;BME280;51921;51.518;-3.188;2023-07-31T12:14:58;100108.71;;;13.75;100.00
60817;BME280;51921;51.518;-3.188;2023-07-31T12:17:25;100118.54;;;13.42;100.00
60817;BME280;51921;51.518;-3.188;2023-07-31T12:19:49;100107.14;;;13.49;100.00
60817;BME280;51921;51.518;-3.188;2023-07-31T12:22:15;100120.62;;;12.97;100.00
60817;BME280;51921;51.518;-3.188;2023-07-31T12:24:41;100123.80;;;13.54;100.00